createdAt,value
2018-03-22T00:00:06.334Z,4.47
2018-03-22T00:02:34.338Z,3.93
2018-03-22T00:05:02.481Z,4.30
2018-03-22T00:07:33.034Z,3.73
2018-03-22T00:10:00.813Z,4.80
2018-03-22T00:12:28.956Z,4.23
2018-03-22T00:14:57.480Z,4.30
2018-03-22T00:17:25.730Z,4.73
2018-03-22T00:19:54.777Z,4.47
2018-03-22T00:22:22.806Z,4.87
2018-03-22T00:24:50.748Z,4.00
2018-03-22T00:27:18.715Z,4.33
2018-03-22T00:29:46.821Z,4.40
2018-03-22T00:32:14.732Z,4.47
2018-03-22T00:34:43.311Z,4.63
2018-03-22T00:37:11.160Z,4.40
2018-03-22T00:39:39.796Z,4.33
2018-03-22T00:42:08.304Z,4.53
2018-03-22T00:44:36.502Z,4.57
2018-03-22T00:47:04.197Z,4.33
2018-03-22T00:49:32.148Z,5.33
2018-03-22T00:52:00.013Z,4.37
2018-03-22T00:54:28.524Z,5.10
2018-03-22T00:56:56.266Z,4.33
2018-03-22T00:59:24.153Z,4.93
2018-03-22T01:01:52.536Z,4.10
2018-03-22T01:04:20.756Z,4.63
2018-03-22T01:06:49.451Z,4.63
2018-03-22T01:09:18.840Z,4.17
2018-03-22T01:11:47.124Z,4.10
2018-03-22T01:14:16.416Z,3.50
2018-03-22T01:16:44.558Z,4.13
2018-03-22T01:19:12.454Z,4.80
2018-03-22T01:21:40.708Z,4.17
2018-03-22T01:24:10.050Z,4.17
2018-03-22T01:26:37.828Z,4.40
2018-03-22T01:29:06.349Z,3.60
2018-03-22T01:31:34.848Z,3.87
2018-03-22T01:34:02.670Z,4.73
2018-03-22T01:36:30.563Z,5.00
2018-03-22T01:38:59.558Z,4.50
2018-03-22T01:41:27.443Z,4.37
2018-03-22T01:43:55.776Z,3.90
2018-03-22T01:46:23.599Z,4.03
2018-03-22T01:48:51.628Z,4.23
2018-03-22T01:51:20.473Z,4.20
2018-03-22T01:53:48.666Z,4.00
2018-03-22T01:56:16.683Z,4.30
2018-03-22T01:58:44.505Z,4.07
2018-03-22T02:01:12.712Z,3.83
2018-03-22T02:03:41.733Z,3.83
2018-03-22T02:06:10.473Z,4.23
2018-03-22T02:08:38.523Z,3.70
2018-03-22T02:11:06.989Z,3.80
2018-03-22T02:13:35.134Z,4.00
2018-03-22T02:16:03.759Z,3.83
2018-03-22T02:18:33.228Z,4.43
2018-03-22T02:21:03.062Z,4.20
2018-03-22T02:23:30.893Z,3.70
2018-03-22T02:25:58.659Z,3.70
2018-03-22T02:28:26.789Z,3.93
2018-03-22T02:30:54.684Z,3.77
2018-03-22T02:33:22.621Z,3.87
2018-03-22T02:35:50.381Z,3.83
2018-03-22T02:38:18.484Z,3.80
2018-03-22T02:40:47.536Z,3.47
2018-03-22T02:43:15.602Z,3.90
2018-03-22T02:45:43.370Z,3.70
2018-03-22T02:48:11.246Z,3.80
2018-03-22T02:50:39.967Z,4.10
2018-03-22T02:53:08.531Z,3.60
2018-03-22T02:55:36.500Z,3.60
2018-03-22T02:58:05.796Z,3.70
2018-03-22T03:00:34.334Z,3.23
2018-03-22T03:03:04.177Z,3.17
2018-03-22T03:05:32.120Z,3.17
2018-03-22T03:07:59.914Z,3.23
2018-03-22T03:10:27.953Z,3.50
2018-03-22T03:12:55.763Z,3.63
2018-03-22T03:15:24.522Z,2.93
2018-03-22T03:17:53.597Z,3.80
2018-03-22T03:20:21.306Z,3.03
2018-03-22T03:22:49.286Z,4.07
2018-03-22T03:25:17.965Z,3.93
2018-03-22T03:27:45.869Z,3.87
2018-03-22T03:30:13.911Z,3.13
2018-03-22T03:32:41.697Z,3.70
2018-03-22T03:35:09.914Z,3.83
2018-03-22T03:37:38.049Z,3.17
2018-03-22T03:40:05.821Z,3.70
2018-03-22T03:42:33.956Z,3.27
2018-03-22T03:45:01.634Z,3.80
2018-03-22T03:47:30.400Z,3.10
2018-03-22T03:49:58.378Z,3.20
2018-03-22T03:52:26.356Z,3.10
2018-03-22T03:54:54.102Z,3.70
2018-03-22T03:57:22.484Z,3.40
2018-03-22T03:59:50.348Z,3.40
2018-03-22T04:02:18.380Z,4.03
2018-03-22T04:04:47.256Z,3.27
2018-03-22T04:07:16.005Z,3.33
2018-03-22T04:09:44.479Z,3.00
2018-03-22T04:12:12.581Z,3.23
2018-03-22T04:14:40.490Z,3.40
2018-03-22T04:17:08.393Z,3.10
2018-03-22T04:19:36.162Z,3.10
2018-03-22T04:22:04.024Z,3.40
2018-03-22T04:24:31.710Z,2.93
2018-03-22T04:26:59.575Z,3.20
2018-03-22T04:29:28.313Z,3.10
2018-03-22T04:31:56.623Z,3.23
2018-03-22T04:34:24.508Z,3.13
2018-03-22T04:36:52.259Z,2.97
2018-03-22T04:39:19.910Z,2.77
2018-03-22T04:41:48.002Z,2.93
2018-03-22T04:44:16.850Z,2.77
2018-03-22T04:46:45.500Z,2.90
2018-03-22T04:49:14.220Z,3.43
2018-03-22T04:51:43.070Z,3.20
2018-03-22T04:54:11.603Z,3.00
2018-03-22T04:56:39.454Z,3.17
2018-03-22T04:59:07.554Z,3.70
2018-03-22T05:01:35.287Z,2.93
2018-03-22T05:04:04.468Z,3.50
2018-03-22T05:06:33.062Z,2.80
2018-03-22T05:09:01.034Z,3.37
2018-03-22T05:11:28.840Z,3.67
2018-03-22T05:13:56.567Z,3.80
2018-03-22T05:16:24.078Z,2.90
2018-03-22T05:18:52.563Z,3.37
2018-03-22T05:21:20.420Z,3.70
2018-03-22T05:23:48.216Z,2.80
2018-03-22T05:26:16.496Z,3.20
2018-03-22T05:28:44.071Z,3.40
2018-03-22T05:31:11.986Z,2.70
2018-03-22T05:33:39.960Z,3.20
2018-03-22T05:36:08.170Z,3.10
2018-03-22T05:38:36.882Z,3.17
2018-03-22T05:41:05.576Z,3.20
2018-03-22T05:43:33.456Z,3.43
2018-03-22T05:46:01.215Z,2.87
2018-03-22T05:48:29.061Z,2.87
2018-03-22T05:50:56.772Z,2.80
2018-03-22T05:53:25.034Z,3.27
2018-03-22T05:55:52.825Z,3.10
2018-03-22T05:58:21.235Z,2.87
2018-03-22T06:00:48.986Z,2.83
2018-03-22T06:03:16.725Z,3.20
2018-03-22T06:05:44.567Z,3.27
2018-03-22T06:08:13.017Z,3.33
2018-03-22T06:10:40.920Z,3.50
2018-03-22T06:13:08.779Z,3.20
2018-03-22T06:15:37.179Z,2.60
2018-03-22T06:18:05.932Z,3.07
2018-03-22T06:20:33.876Z,3.23
2018-03-22T06:23:02.581Z,2.90
2018-03-22T06:25:30.480Z,2.73
2018-03-22T06:27:59.145Z,2.93
2018-03-22T06:30:26.951Z,3.07
2018-03-22T06:32:54.699Z,2.80
2018-03-22T06:35:22.279Z,2.90
2018-03-22T06:37:50.031Z,2.73
2018-03-22T06:40:18.361Z,2.90
2018-03-22T06:42:47.254Z,3.57
2018-03-22T06:45:15.198Z,3.03
2018-03-22T06:47:43.996Z,3.30
2018-03-22T06:50:11.637Z,3.40
2018-03-22T06:52:39.900Z,3.30
2018-03-22T06:55:08.054Z,2.83
2018-03-22T06:57:35.708Z,3.23
2018-03-22T07:00:03.511Z,2.87
2018-03-22T07:02:31.233Z,3.47
2018-03-22T07:05:00.403Z,2.80
2018-03-22T07:07:28.067Z,3.93
2018-03-22T07:09:55.882Z,3.37
2018-03-22T07:12:23.471Z,3.17
2018-03-22T07:14:52.368Z,3.03
2018-03-22T07:17:20.982Z,3.13
2018-03-22T07:19:48.613Z,3.30
2018-03-22T07:22:16.997Z,3.30
2018-03-22T07:24:45.580Z,2.83
2018-03-22T07:27:13.305Z,2.80
2018-03-22T07:29:41.927Z,3.10
2018-03-22T07:32:10.611Z,4.07
2018-03-22T07:34:39.501Z,3.47
2018-03-22T07:37:07.427Z,3.50
2018-03-22T07:39:35.314Z,3.43
2018-03-22T07:42:02.988Z,3.13
2018-03-22T07:44:30.869Z,2.80
2018-03-22T07:46:58.988Z,3.27
2018-03-22T07:49:26.642Z,3.50
2018-03-22T07:51:54.373Z,3.50
2018-03-22T07:54:22.273Z,3.80
2018-03-22T07:56:50.031Z,3.40
2018-03-22T07:59:17.765Z,3.30
2018-03-22T08:01:46.034Z,3.43
2018-03-22T08:04:13.801Z,2.90
2018-03-22T08:06:41.406Z,3.73
2018-03-22T08:09:10.404Z,3.13
2018-03-22T08:11:38.473Z,3.50
2018-03-22T08:14:06.953Z,3.20
2018-03-22T08:16:34.772Z,2.63
2018-03-22T08:19:02.861Z,2.83
2018-03-22T08:21:31.122Z,3.50
2018-03-22T08:23:58.852Z,3.10
2018-03-22T08:26:27.752Z,3.03
2018-03-22T08:28:56.525Z,3.47
2018-03-22T08:31:24.999Z,3.40
2018-03-22T08:33:53.076Z,3.10
2018-03-22T08:36:20.896Z,3.50
2018-03-22T08:38:48.575Z,3.13
2018-03-22T08:41:16.359Z,3.20
2018-03-22T08:43:44.070Z,2.90
2018-03-22T08:46:12.307Z,3.70
2018-03-22T08:48:39.898Z,3.47
2018-03-22T08:51:07.565Z,3.27
2018-03-22T08:53:35.290Z,3.20
2018-03-22T08:56:02.959Z,3.13
2018-03-22T08:58:30.754Z,2.73
2018-03-22T09:00:59.461Z,3.07
2018-03-22T09:03:27.118Z,2.50
2018-03-22T09:05:55.510Z,2.90
2018-03-22T09:08:24.328Z,3.40
2018-03-22T09:10:53.453Z,3.20
2018-03-22T09:13:21.748Z,3.63
2018-03-22T09:15:50.780Z,3.43
2018-03-22T09:18:20.288Z,3.00
2018-03-22T09:20:49.104Z,3.17
2018-03-22T09:23:17.233Z,3.10
2018-03-22T09:25:46.106Z,3.37
2018-03-22T09:28:14.388Z,3.20
2018-03-22T09:30:43.144Z,3.60
2018-03-22T09:33:10.788Z,3.30
2018-03-22T09:35:39.507Z,3.03
2018-03-22T09:38:07.218Z,3.00
2018-03-22T09:40:35.557Z,2.97
2018-03-22T09:43:03.302Z,3.20
2018-03-22T09:45:31.034Z,3.60
2018-03-22T09:47:58.883Z,3.77
2018-03-22T09:50:26.846Z,2.83
2018-03-22T09:52:55.394Z,3.23
2018-03-22T09:55:23.497Z,2.73
2018-03-22T09:57:51.915Z,3.30
2018-03-22T10:00:20.698Z,3.20
2018-03-22T10:02:49.816Z,3.70
2018-03-22T10:05:17.525Z,2.77
2018-03-22T10:07:45.272Z,2.63
2018-03-22T10:10:13.052Z,3.30
2018-03-22T10:12:40.878Z,3.73
2018-03-22T10:15:09.115Z,3.43
2018-03-22T10:17:37.134Z,3.73
2018-03-22T10:20:04.874Z,3.73
2018-03-22T10:22:32.763Z,3.57
2018-03-22T10:25:00.690Z,3.90
2018-03-22T10:27:28.700Z,3.90
2018-03-22T10:29:56.604Z,3.47
2018-03-22T10:32:25.082Z,3.60
2018-03-22T10:34:53.053Z,4.57
2018-03-22T10:37:21.097Z,4.93
2018-03-22T10:39:48.983Z,5.33
2018-03-22T10:42:16.837Z,5.30
2018-03-22T10:44:45.447Z,6.17
2018-03-22T10:47:14.619Z,5.30
2018-03-22T10:49:42.429Z,5.40
2018-03-22T10:52:10.085Z,6.20
2018-03-22T10:54:37.847Z,7.10
2018-03-22T10:57:05.659Z,6.63
2018-03-22T10:59:33.396Z,7.27
2018-03-22T11:02:01.949Z,6.80
2018-03-22T11:04:29.702Z,6.67
2018-03-22T11:06:57.338Z,6.70
2018-03-22T11:09:25.436Z,7.03
2018-03-22T11:11:53.142Z,7.77
2018-03-22T11:14:20.842Z,7.10
2018-03-22T11:16:49.428Z,7.03
2018-03-22T11:19:17.202Z,6.90
2018-03-22T11:21:44.852Z,7.00
2018-03-22T11:24:12.592Z,7.10
2018-03-22T11:26:40.362Z,7.10
2018-03-22T11:29:07.942Z,7.17
2018-03-22T11:31:35.596Z,6.57
2018-03-22T11:34:03.662Z,6.50
2018-03-22T11:36:31.285Z,6.23
2018-03-22T11:38:58.861Z,6.00
2018-03-22T11:41:27.314Z,6.23
2018-03-22T11:43:54.980Z,6.40
2018-03-22T11:46:23.215Z,6.20
2018-03-22T11:48:50.954Z,5.80
2018-03-22T11:51:18.828Z,6.23
2018-03-22T11:53:46.864Z,6.40
2018-03-22T11:56:15.139Z,5.53
2018-03-22T11:58:43.486Z,5.80
2018-03-22T12:01:11.215Z,5.33
2018-03-22T12:03:39.224Z,5.80
2018-03-22T12:06:07.291Z,5.97
2018-03-22T12:08:35.082Z,5.80
2018-03-22T12:11:03.774Z,5.23
2018-03-22T12:13:31.764Z,5.50
2018-03-22T12:15:59.578Z,5.60
2018-03-22T12:18:27.827Z,5.60
2018-03-22T12:20:56.370Z,6.30
2018-03-22T12:23:24.257Z,5.90
2018-03-22T12:25:52.990Z,5.43
2018-03-22T12:28:22.146Z,4.70
2018-03-22T12:30:50.654Z,4.83
2018-03-22T12:33:18.681Z,4.90
2018-03-22T12:35:46.679Z,5.17
2018-03-22T12:38:15.881Z,5.47
2018-03-22T12:40:43.794Z,4.33
2018-03-22T12:43:12.037Z,5.37
2018-03-22T12:45:40.101Z,5.00
2018-03-22T12:48:07.864Z,4.97
2018-03-22T12:50:35.560Z,5.10
2018-03-22T12:53:03.356Z,4.77
2018-03-22T12:55:31.157Z,4.57
2018-03-22T12:57:59.114Z,4.03
2018-03-22T13:00:27.580Z,4.90
2018-03-22T13:02:55.419Z,5.13
2018-03-22T13:05:23.408Z,5.20
2018-03-22T13:07:51.199Z,5.17
2018-03-22T13:10:19.286Z,4.80
2018-03-22T13:12:47.176Z,4.90
2018-03-22T13:15:15.878Z,5.70
2018-03-22T13:17:44.824Z,5.10
2018-03-22T13:20:12.516Z,4.97
2018-03-22T13:22:42.405Z,7.50
2018-03-22T13:25:10.432Z,6.50
2018-03-22T13:27:38.250Z,7.70
2018-03-22T13:30:06.405Z,7.50
2018-03-22T13:32:34.351Z,6.27
2018-03-22T13:35:02.000Z,6.90
2018-03-22T13:37:29.919Z,6.77
2018-03-22T13:39:57.527Z,6.30
2018-03-22T13:42:26.360Z,5.43
2018-03-22T13:44:54.186Z,13.07
2018-03-22T13:47:46.504Z,26.83
2018-03-22T13:50:14.282Z,24.40
2018-03-22T13:52:42.022Z,19.90
2018-03-22T13:55:09.888Z,22.73
2018-03-22T13:57:37.660Z,21.33
2018-03-22T14:00:05.314Z,19.50
2018-03-22T14:02:33.102Z,21.50
2018-03-22T14:05:00.741Z,22.13
2018-03-22T14:07:28.392Z,20.83
2018-03-22T14:09:56.098Z,20.23
2018-03-22T14:12:24.238Z,20.03
2018-03-22T14:14:52.331Z,18.80
2018-03-22T14:17:20.174Z,19.80
2018-03-22T14:19:48.128Z,18.43
2018-03-22T14:22:16.016Z,20.77
2018-03-22T14:24:43.858Z,18.90
2018-03-22T14:27:11.588Z,17.50
2018-03-22T14:29:39.402Z,16.93
2018-03-22T14:32:07.658Z,17.83
2018-03-22T14:34:35.688Z,16.30
2018-03-22T14:37:04.362Z,14.80
2018-03-22T14:39:32.336Z,14.83
2018-03-22T14:42:01.134Z,15.73
2018-03-22T14:44:29.850Z,16.77
2018-03-22T14:46:57.966Z,14.83
2018-03-22T14:49:26.203Z,14.00
2018-03-22T14:51:54.604Z,14.60
2018-03-22T14:54:22.442Z,13.20
2018-03-22T14:56:50.164Z,15.73
2018-03-22T14:59:17.902Z,12.47
2018-03-22T15:01:46.874Z,13.40
2018-03-22T15:04:15.832Z,13.10
2018-03-22T15:06:43.588Z,12.00
2018-03-22T15:09:11.621Z,11.77
2018-03-22T15:11:39.798Z,11.70
2018-03-22T15:14:08.390Z,12.20
2018-03-22T15:16:36.549Z,11.20
2018-03-22T15:19:06.142Z,11.23
2018-03-22T15:21:34.876Z,11.80
2018-03-22T15:24:03.509Z,11.67
2018-03-22T15:26:31.540Z,11.20
2018-03-22T15:28:59.282Z,10.03
2018-03-22T15:31:28.712Z,10.07
2018-03-22T15:33:56.528Z,10.67
2018-03-22T15:36:24.277Z,10.73
2018-03-22T15:38:52.137Z,10.43
2018-03-22T15:41:20.753Z,10.43
2018-03-22T15:43:48.930Z,10.43
2018-03-22T15:46:16.571Z,9.93
2018-03-22T15:48:45.185Z,9.40
2018-03-22T15:51:12.951Z,9.80
2018-03-22T15:53:40.796Z,9.43
2018-03-22T15:56:09.508Z,9.40
2018-03-22T15:58:37.243Z,8.90
2018-03-22T16:01:05.310Z,9.50
2018-03-22T16:03:33.115Z,9.40
2018-03-22T16:06:01.242Z,9.40
2018-03-22T16:08:29.134Z,9.53
2018-03-22T16:10:56.914Z,8.30
2018-03-22T16:13:24.777Z,9.80
2018-03-22T16:15:52.937Z,8.60
2018-03-22T16:18:21.920Z,9.10
2018-03-22T16:20:50.809Z,9.30
2018-03-22T16:23:18.851Z,9.33
2018-03-22T16:25:46.717Z,8.30
2018-03-22T16:28:14.705Z,9.27
2018-03-22T16:30:42.312Z,8.77
2018-03-22T16:33:10.043Z,9.40
2018-03-22T16:35:37.705Z,9.10
2018-03-22T16:38:06.477Z,8.37
2018-03-22T16:40:34.249Z,9.40
2018-03-22T16:43:01.927Z,7.90
2018-03-22T16:45:29.720Z,8.37
2018-03-22T16:47:57.953Z,8.87
2018-03-22T16:50:26.095Z,9.20
2018-03-22T16:52:55.228Z,8.37
2018-03-22T16:55:23.146Z,7.67
2018-03-22T16:57:52.116Z,8.03
2018-03-22T17:00:21.398Z,8.60
2018-03-22T17:02:49.368Z,8.97
2018-03-22T17:05:18.442Z,8.20
2018-03-22T17:07:46.268Z,9.23
2018-03-22T17:10:14.638Z,7.30
2018-03-22T17:12:44.584Z,7.90
2018-03-22T17:15:13.875Z,9.30
2018-03-22T17:17:42.209Z,8.07
2018-03-22T17:20:10.149Z,7.63
2018-03-22T17:22:38.253Z,7.93
2018-03-22T17:25:06.179Z,7.07
2018-03-22T17:27:34.363Z,8.73
2018-03-22T17:30:02.609Z,7.23
2018-03-22T17:32:32.451Z,7.80
2018-03-22T17:35:00.945Z,7.73
2018-03-22T17:37:28.715Z,8.40
2018-03-22T17:39:56.565Z,7.57
2018-03-22T17:42:24.406Z,7.93
2018-03-22T17:44:52.295Z,7.73
2018-03-22T17:47:20.065Z,7.10
2018-03-22T17:49:48.878Z,7.70
2018-03-22T17:52:17.074Z,7.07
2018-03-22T17:54:45.239Z,6.80
2018-03-22T17:57:13.905Z,7.13
2018-03-22T17:59:42.182Z,7.10
2018-03-22T18:02:09.990Z,6.43
2018-03-22T18:04:39.060Z,7.37
2018-03-22T18:07:06.856Z,6.00
2018-03-22T18:09:34.959Z,6.53
2018-03-22T18:12:02.885Z,6.93
2018-03-22T18:14:31.009Z,5.83
2018-03-22T18:17:00.277Z,6.93
2018-03-22T18:19:28.615Z,5.73
2018-03-22T18:21:57.687Z,6.10
2018-03-22T18:24:25.603Z,6.90
2018-03-22T18:26:53.661Z,6.33
2018-03-22T18:29:21.593Z,6.23
2018-03-22T18:31:49.309Z,6.13
2018-03-22T18:34:17.718Z,6.80
2018-03-22T18:36:46.802Z,6.63
2018-03-22T18:39:14.823Z,6.10
2018-03-22T18:41:42.714Z,6.27
2018-03-22T18:44:10.680Z,5.83
2018-03-22T18:46:38.448Z,6.27
2018-03-22T18:49:06.164Z,6.53
2018-03-22T18:51:33.943Z,5.87
2018-03-22T18:54:02.151Z,5.43
2018-03-22T18:56:29.911Z,6.20
2018-03-22T18:58:57.600Z,5.53
2018-03-22T19:01:25.418Z,5.97
2018-03-22T19:03:53.360Z,5.03
2018-03-22T19:06:21.610Z,5.70
2018-03-22T19:08:49.508Z,4.73
2018-03-22T19:11:17.116Z,4.90
2018-03-22T19:13:45.342Z,5.60
2018-03-22T19:16:13.504Z,5.27
2018-03-22T19:18:41.308Z,5.20
2018-03-22T19:21:10.391Z,5.20
2018-03-22T19:23:38.290Z,5.13
2018-03-22T19:26:06.239Z,5.00
2018-03-22T19:28:34.028Z,4.70
2018-03-22T19:31:01.880Z,5.07
2018-03-22T19:33:30.391Z,5.53
2018-03-22T19:35:58.385Z,5.63
2018-03-22T19:38:26.140Z,5.50
2018-03-22T19:40:54.139Z,5.37
2018-03-22T19:43:23.108Z,5.20
2018-03-22T19:45:50.922Z,5.10
2018-03-22T19:48:18.868Z,4.73
2018-03-22T19:50:46.858Z,4.77
2018-03-22T19:53:15.707Z,4.60
2018-03-22T19:55:43.651Z,5.07
2018-03-22T19:58:11.731Z,4.90
2018-03-22T20:00:39.399Z,5.77
2018-03-22T20:03:07.066Z,3.93
2018-03-22T20:05:35.818Z,4.77
2018-03-22T20:08:03.487Z,4.60
2018-03-22T20:10:31.693Z,4.37
2018-03-22T20:12:59.902Z,4.60
2018-03-22T20:15:28.332Z,4.60
2018-03-22T20:17:56.440Z,4.50
2018-03-22T20:20:25.063Z,4.67
2018-03-22T20:22:52.806Z,4.60
2018-03-22T20:25:20.739Z,3.77
2018-03-22T20:27:48.825Z,4.60
2018-03-22T20:30:16.429Z,4.00
2018-03-22T20:32:44.230Z,4.20
2018-03-22T20:35:12.050Z,4.60
2018-03-22T20:37:39.839Z,3.67
2018-03-22T20:40:07.698Z,4.53
2018-03-22T20:42:35.731Z,4.00
2018-03-22T20:45:03.992Z,3.93
2018-03-22T20:47:32.636Z,3.93
2018-03-22T20:50:00.521Z,3.53
2018-03-22T20:52:29.553Z,3.80
2018-03-22T20:54:57.434Z,3.80
2018-03-22T20:57:25.130Z,3.50
2018-03-22T20:59:53.470Z,3.97
2018-03-22T21:02:21.571Z,2.83
2018-03-22T21:04:49.296Z,3.90
2018-03-22T21:07:17.112Z,3.20
2018-03-22T21:09:45.167Z,3.80
2018-03-22T21:12:14.105Z,3.47
2018-03-22T21:14:42.616Z,3.70
2018-03-22T21:17:10.791Z,3.30
2018-03-22T21:19:38.664Z,3.53
2018-03-22T21:22:06.982Z,3.20
2018-03-22T21:24:34.967Z,3.23
2018-03-22T21:27:03.469Z,3.47
2018-03-22T21:29:31.341Z,3.50
2018-03-22T21:31:59.837Z,3.37
2018-03-22T21:34:27.895Z,2.90
2018-03-22T21:36:57.016Z,3.30
2018-03-22T21:39:25.879Z,3.70
2018-03-22T21:41:53.552Z,3.47
2018-03-22T21:44:22.743Z,3.43
2018-03-22T21:46:50.416Z,3.27
2018-03-22T21:49:18.445Z,3.47
2018-03-22T21:51:46.305Z,3.23
2018-03-22T21:54:14.756Z,2.60
2018-03-22T21:56:42.863Z,2.83
2018-03-22T21:59:10.879Z,2.73
2018-03-22T22:01:38.573Z,3.27
2018-03-22T22:04:06.695Z,2.83
2018-03-22T22:06:35.263Z,2.90
2018-03-22T22:09:03.298Z,3.00
2018-03-22T22:11:31.312Z,2.27
2018-03-22T22:14:00.302Z,3.20
2018-03-22T22:16:29.000Z,2.80
2018-03-22T22:18:57.918Z,2.53
2018-03-22T22:21:25.643Z,2.73
2018-03-22T22:23:54.353Z,2.27
2018-03-22T22:26:22.464Z,2.80
2018-03-22T22:28:51.424Z,2.70
2018-03-22T22:31:19.268Z,2.10
2018-03-22T22:33:48.577Z,2.60
2018-03-22T22:36:16.591Z,2.30
2018-03-22T22:38:45.273Z,2.77
2018-03-22T22:41:13.062Z,2.57
2018-03-22T22:43:40.799Z,2.57
2018-03-22T22:46:09.848Z,2.90
2018-03-22T22:48:37.596Z,2.10
2018-03-22T22:51:05.459Z,2.53
2018-03-22T22:53:33.838Z,2.30
2018-03-22T22:56:02.451Z,2.60
2018-03-22T22:58:30.200Z,2.47
2018-03-22T23:00:57.891Z,2.37
2018-03-22T23:03:25.711Z,2.30
2018-03-22T23:05:54.659Z,2.70
2018-03-22T23:08:23.327Z,2.20
2018-03-22T23:10:51.170Z,2.30
2018-03-22T23:13:19.291Z,2.50
2018-03-22T23:15:48.009Z,2.20
2018-03-22T23:18:16.322Z,2.30
2018-03-22T23:20:44.196Z,2.27
2018-03-22T23:23:12.791Z,2.33
2018-03-22T23:25:40.561Z,2.30
2018-03-22T23:28:08.665Z,2.53
2018-03-22T23:30:36.351Z,2.67
2018-03-22T23:33:04.171Z,2.20
2018-03-22T23:35:31.943Z,2.10
2018-03-22T23:37:59.749Z,3.30
2018-03-22T23:40:27.714Z,2.13
2018-03-22T23:42:55.452Z,2.37
2018-03-22T23:45:23.082Z,3.00
2018-03-22T23:47:50.912Z,2.67
2018-03-22T23:50:18.666Z,2.47
2018-03-22T23:52:47.218Z,2.03
2018-03-22T23:55:15.160Z,2.17
2018-03-22T23:57:42.870Z,2.03
